createdAt,value
2022-09-10T00:00:19.549Z,86.70
2022-09-10T00:03:11.794Z,86.73
2022-09-10T00:05:46.339Z,86.95
2022-09-10T00:08:19.394Z,86.92
2022-09-10T00:10:53.495Z,87.12
2022-09-10T00:13:25.370Z,87.15
2022-09-10T00:15:57.343Z,87.17
2022-09-10T00:18:29.793Z,87.26
2022-09-10T00:21:05.547Z,87.33
2022-09-10T00:23:37.689Z,87.10
2022-09-10T00:26:15.830Z,87.28
2022-09-10T00:28:48.499Z,87.30
2022-09-10T00:31:22.035Z,87.50
2022-09-10T00:33:54.842Z,87.68
2022-09-10T00:36:28.391Z,87.63
2022-09-10T00:39:03.635Z,87.63
2022-09-10T00:41:37.693Z,87.69
2022-09-10T00:44:25.780Z,87.74
2022-09-10T00:46:59.274Z,87.81
2022-09-10T00:49:38.414Z,87.71
2022-09-10T00:52:12.519Z,87.78
2022-09-10T00:54:46.113Z,87.67
2022-09-10T00:57:22.037Z,87.52
2022-09-10T00:59:59.870Z,87.63
2022-09-10T01:02:32.084Z,87.76
2022-09-10T01:05:05.854Z,87.85
2022-09-10T01:07:38.102Z,87.80
2022-09-10T01:10:13.110Z,87.87
2022-09-10T01:13:13.392Z,88.08
2022-09-10T01:15:53.973Z,88.09
2022-09-10T01:18:35.179Z,88.13
2022-09-10T01:21:16.572Z,88.13
2022-09-10T01:24:27.546Z,88.24
2022-09-10T01:27:30.473Z,88.13
2022-09-10T01:30:09.017Z,88.22
2022-09-10T01:33:07.482Z,88.10
2022-09-10T01:35:47.654Z,87.87
2022-09-10T01:38:23.452Z,87.93
2022-09-10T01:40:57.648Z,88.05
2022-09-10T01:43:31.324Z,87.84
2022-09-10T01:46:19.790Z,87.95
2022-09-10T01:49:09.196Z,87.87
2022-09-10T01:52:03.210Z,87.71
2022-09-10T01:54:48.224Z,87.74
2022-09-10T01:57:33.472Z,87.68
2022-09-10T02:00:10.514Z,87.46
2022-09-10T02:02:49.531Z,87.21
2022-09-10T02:05:24.374Z,87.15
2022-09-10T02:08:03.653Z,87.11
2022-09-10T02:10:36.263Z,87.03
2022-09-10T02:13:12.384Z,86.95
2022-09-10T02:15:57.805Z,86.64
2022-09-10T02:18:32.780Z,86.60
2022-09-10T02:21:06.378Z,86.43
2022-09-10T02:23:45.403Z,86.50
2022-09-10T02:26:19.926Z,86.47
2022-09-10T02:28:52.084Z,86.49
2022-09-10T02:31:24.183Z,86.57
2022-09-10T02:33:56.640Z,86.54
2022-09-10T02:36:29.572Z,86.76
2022-09-10T02:39:03.636Z,86.74
2022-09-10T02:41:36.767Z,86.64
2022-09-10T02:44:09.117Z,86.68
2022-09-10T02:46:42.281Z,86.72
2022-09-10T02:49:14.230Z,86.56
2022-09-10T02:51:46.305Z,86.66
2022-09-10T02:54:19.901Z,86.34
2022-09-10T02:56:51.893Z,86.16
2022-09-10T02:59:24.072Z,86.25
2022-09-10T03:01:56.543Z,86.11
2022-09-10T03:04:28.499Z,85.97
2022-09-10T03:07:00.329Z,85.99
2022-09-10T03:09:32.156Z,86.13
2022-09-10T03:12:05.319Z,86.10
2022-09-10T03:14:37.335Z,86.04
2022-09-10T03:17:09.790Z,86.19
2022-09-10T03:19:41.700Z,86.30
2022-09-10T03:22:13.686Z,86.19
2022-09-10T03:24:47.368Z,86.29
2022-09-10T03:27:20.673Z,86.49
2022-09-10T03:29:52.829Z,86.41
2022-09-10T03:32:24.792Z,86.42
2022-09-10T03:34:56.761Z,86.38
2022-09-10T03:37:28.590Z,86.64
2022-09-10T03:40:00.738Z,86.52
2022-09-10T03:42:32.625Z,86.60
2022-09-10T03:45:05.040Z,86.76
2022-09-10T03:47:38.614Z,86.69
2022-09-10T03:50:11.588Z,86.71
2022-09-10T03:52:43.591Z,86.79
2022-09-10T03:55:15.508Z,86.72
2022-09-10T03:57:49.401Z,86.94
2022-09-10T04:00:21.570Z,86.97
2022-09-10T04:02:54.080Z,87.10
2022-09-10T04:05:27.703Z,87.12
2022-09-10T04:08:00.128Z,87.22
2022-09-10T04:10:32.239Z,87.33
2022-09-10T04:13:04.247Z,87.46
2022-09-10T04:15:38.253Z,87.39
2022-09-10T04:18:11.744Z,87.54
2022-09-10T04:20:46.637Z,87.55
2022-09-10T04:23:19.380Z,87.49
2022-09-10T04:25:52.414Z,87.50
2022-09-10T04:28:24.840Z,87.47
2022-09-10T04:30:57.112Z,87.66
2022-09-10T04:33:30.172Z,87.82
2022-09-10T04:36:02.168Z,87.92
2022-09-10T04:38:40.149Z,88.04
2022-09-10T04:41:15.469Z,88.02
2022-09-10T04:43:48.383Z,87.97
2022-09-10T04:46:20.687Z,88.10
2022-09-10T04:48:55.388Z,88.10
2022-09-10T04:51:28.947Z,88.20
2022-09-10T04:54:01.826Z,88.10
2022-09-10T04:56:40.144Z,88.09
2022-09-10T04:59:12.072Z,88.10
2022-09-10T05:01:44.274Z,87.92
2022-09-10T05:04:16.263Z,88.09
2022-09-10T05:06:50.546Z,88.18
2022-09-10T05:09:22.806Z,88.20
2022-09-10T05:11:54.646Z,88.25
2022-09-10T05:14:26.647Z,88.35
2022-09-10T05:16:59.997Z,88.34
2022-09-10T05:19:34.575Z,88.33
2022-09-10T05:22:10.971Z,88.38
2022-09-10T05:24:44.179Z,88.39
2022-09-10T05:27:16.205Z,88.30
2022-09-10T05:29:49.308Z,88.24
2022-09-10T05:32:21.981Z,88.14
2022-09-10T05:34:53.950Z,87.96
2022-09-10T05:37:26.956Z,87.77
2022-09-10T05:39:59.987Z,87.68
2022-09-10T05:42:32.202Z,87.75
2022-09-10T05:45:04.589Z,87.70
2022-09-10T05:47:39.259Z,87.70
2022-09-10T05:50:12.551Z,87.75
2022-09-10T05:52:44.558Z,87.59
2022-09-10T05:55:16.718Z,87.53
2022-09-10T05:57:48.581Z,87.73
2022-09-10T06:00:25.013Z,87.67
2022-09-10T06:03:02.197Z,87.75
2022-09-10T06:05:44.492Z,87.86
2022-09-10T06:08:16.601Z,87.89
2022-09-10T06:11:00.373Z,87.85
2022-09-10T06:13:36.122Z,87.69
2022-09-10T06:16:08.747Z,87.76
2022-09-10T06:18:41.173Z,87.35
2022-09-10T06:21:17.464Z,87.42
2022-09-10T06:23:55.417Z,87.27
2022-09-10T06:26:29.193Z,87.21
2022-09-10T06:29:05.211Z,87.33
2022-09-10T06:31:38.798Z,87.42
2022-09-10T06:34:11.579Z,87.25
2022-09-10T06:36:43.743Z,87.29
2022-09-10T06:39:16.881Z,87.10
2022-09-10T06:41:54.983Z,87.01
2022-09-10T06:44:48.499Z,86.80
2022-09-10T06:48:37.239Z,86.96
2022-09-10T06:50:55.151Z,86.89
2022-09-10T06:53:33.409Z,86.90
2022-09-10T06:56:08.345Z,86.72
2022-09-10T06:58:41.443Z,86.61
2022-09-10T07:01:17.536Z,86.47
2022-09-10T07:03:57.868Z,86.36
2022-09-10T07:06:33.815Z,86.35
2022-09-10T07:49:47.390Z,86.05
2022-09-10T07:52:20.129Z,85.99
2022-09-10T07:54:56.288Z,85.97
2022-09-10T07:57:28.718Z,86.03
2022-09-10T08:00:01.767Z,86.00
2022-09-10T08:02:47.513Z,85.98
2022-09-10T08:05:23.500Z,85.87
2022-09-10T08:07:57.272Z,85.70
2022-09-10T08:10:31.729Z,85.74
2022-09-10T08:13:04.054Z,85.67
2022-09-10T08:15:36.248Z,85.60
2022-09-10T08:18:08.596Z,85.60
2022-09-10T08:20:41.919Z,85.49
2022-09-10T08:23:14.240Z,85.51
2022-09-10T08:25:53.259Z,85.50
2022-09-10T08:28:25.783Z,85.27
2022-09-10T08:31:04.258Z,85.13
2022-09-10T08:33:38.289Z,85.05
2022-09-10T08:36:13.924Z,84.93
2022-09-10T08:38:46.985Z,85.02
2022-09-10T08:41:32.466Z,84.94
2022-09-10T08:44:08.576Z,84.91
2022-09-10T08:46:48.445Z,84.52
2022-09-10T08:49:26.170Z,84.46
2022-09-10T08:52:02.557Z,84.43
2022-09-10T08:54:39.237Z,84.40
2022-09-10T08:57:28.188Z,84.14
2022-09-10T09:00:02.975Z,84.06
2022-09-10T09:02:49.521Z,84.00
2022-09-10T09:05:25.809Z,83.74
2022-09-10T09:07:59.740Z,83.88
2022-09-10T09:10:43.134Z,83.92
2022-09-10T09:13:33.682Z,83.97
2022-09-10T09:16:19.176Z,83.66
2022-09-10T09:19:06.698Z,83.69
2022-09-10T09:21:49.216Z,83.74
2022-09-10T09:24:25.525Z,83.53
2022-09-10T09:27:09.829Z,83.44
2022-09-10T09:29:49.229Z,83.34
2022-09-10T09:32:23.490Z,83.37
2022-09-10T09:34:58.416Z,83.10
2022-09-10T09:37:34.615Z,82.88
2022-09-10T09:40:15.536Z,82.69
2022-09-10T09:42:54.172Z,82.67
2022-09-10T09:45:36.460Z,82.76
2022-09-10T09:48:12.747Z,83.01
2022-09-10T09:50:48.657Z,82.95
2022-09-10T09:53:25.216Z,82.94
2022-09-10T09:55:59.031Z,82.71
2022-09-10T09:58:34.705Z,82.43
2022-09-10T10:01:15.080Z,82.58
2022-09-10T10:03:58.747Z,82.49
2022-09-10T10:06:32.703Z,82.40
2022-09-10T10:09:08.047Z,82.35
2022-09-10T10:11:47.211Z,82.43
2022-09-10T10:14:35.292Z,82.37
2022-09-10T10:17:29.718Z,81.93
2022-09-10T10:20:06.056Z,81.78
2022-09-10T10:22:39.382Z,81.48
2022-09-10T10:25:36.605Z,81.41
2022-09-10T10:28:17.759Z,81.11
2022-09-10T10:30:54.881Z,81.09
2022-09-10T10:33:33.520Z,81.29
2022-09-10T10:36:13.614Z,81.43
2022-09-10T10:38:52.233Z,81.59
2022-09-10T10:41:54.156Z,81.63
2022-09-10T10:44:40.668Z,81.50
2022-09-10T10:47:29.053Z,81.37
2022-09-10T10:50:10.210Z,80.78
2022-09-10T10:52:55.332Z,80.53
2022-09-10T10:55:32.765Z,80.34
2022-09-10T10:58:33.154Z,80.14
2022-09-10T11:01:15.109Z,79.56
2022-09-10T11:03:54.881Z,79.47
2022-09-10T11:06:32.052Z,79.01
2022-09-10T11:09:09.536Z,79.04
2022-09-10T11:11:49.378Z,79.20
2022-09-10T11:14:28.277Z,79.12
2022-09-10T11:17:05.892Z,78.92
2022-09-10T11:19:44.395Z,78.84
2022-09-10T11:22:21.099Z,78.63
2022-09-10T11:24:58.922Z,78.36
2022-09-10T11:27:35.787Z,78.25
2022-09-10T11:30:11.659Z,78.23
2022-09-10T11:32:48.053Z,78.12
2022-09-10T11:35:27.672Z,78.09
2022-09-10T11:38:07.981Z,77.84
2022-09-10T11:40:44.822Z,77.67
2022-09-10T11:43:35.012Z,77.77
2022-09-10T11:46:12.948Z,77.52
2022-09-10T11:48:50.853Z,77.39
2022-09-10T11:51:30.649Z,77.47
2022-09-10T11:54:05.073Z,77.30
2022-09-10T11:57:00.214Z,77.32
2022-09-10T12:00:02.350Z,77.25
2022-09-10T12:03:04.723Z,77.66
2022-09-10T12:05:47.035Z,77.33
2022-09-10T12:08:32.723Z,77.27
2022-09-10T12:11:15.227Z,77.14
2022-09-10T12:13:50.174Z,77.01
2022-09-10T12:16:32.411Z,76.93
2022-09-10T12:19:10.298Z,76.52
2022-09-10T12:21:48.692Z,76.44
2022-09-10T12:24:32.570Z,76.28
2022-09-10T12:27:06.080Z,76.22
2022-09-10T12:29:40.898Z,76.16
2022-09-10T12:32:38.500Z,76.14
2022-09-10T12:35:47.524Z,75.93
2022-09-10T12:38:55.973Z,75.85
2022-09-10T12:41:59.170Z,75.75
2022-09-10T12:44:46.670Z,75.92
2022-09-10T12:47:50.472Z,75.60
2022-09-10T12:50:46.556Z,75.61
2022-09-10T12:53:58.749Z,75.59
2022-09-10T12:57:09.192Z,75.16
2022-09-10T13:00:12.608Z,75.11
2022-09-10T13:02:51.401Z,75.03
2022-09-10T13:05:29.720Z,75.01
2022-09-10T13:08:12.262Z,74.92
2022-09-10T13:10:47.291Z,75.13
2022-09-10T13:13:45.103Z,75.21
2022-09-10T13:16:21.220Z,75.14
2022-09-10T13:18:57.023Z,74.99
2022-09-10T13:21:54.964Z,74.97
2022-09-10T13:25:00.277Z,74.86
2022-09-10T13:27:42.969Z,74.70
2022-09-10T13:30:20.146Z,74.90
2022-09-10T13:32:55.514Z,74.88
2022-09-10T13:35:53.817Z,75.10
2022-09-10T13:38:52.113Z,75.59
2022-09-10T13:41:53.576Z,75.56
2022-09-10T13:44:41.210Z,75.45
2022-09-10T13:47:17.951Z,75.45
2022-09-10T13:49:57.494Z,75.51
2022-09-10T13:52:35.109Z,75.74
2022-09-10T13:55:09.157Z,75.67
2022-09-10T13:57:45.228Z,75.70
2022-09-10T14:00:24.643Z,75.71
2022-09-10T14:02:58.683Z,75.63
2022-09-10T14:05:44.324Z,75.73
2022-09-10T14:08:21.592Z,75.96
2022-09-10T14:11:00.709Z,76.21
2022-09-10T14:13:37.442Z,76.08
2022-09-10T14:16:20.231Z,76.18
2022-09-10T14:18:55.511Z,76.29
2022-09-10T14:21:29.421Z,76.43
2022-09-10T14:24:04.280Z,76.08
2022-09-10T14:26:37.133Z,75.92
2022-09-10T14:29:27.107Z,76.06
2022-09-10T14:31:59.128Z,76.26
2022-09-10T14:34:41.460Z,76.51
2022-09-10T14:40:20.968Z,76.16
2022-09-10T14:42:53.054Z,76.19
2022-09-10T14:45:47.882Z,76.11
2022-09-10T14:48:35.657Z,76.25
2022-09-10T14:51:17.698Z,75.86
2022-09-10T14:53:54.016Z,75.86
2022-09-10T14:56:30.406Z,75.66
2022-09-10T14:59:12.869Z,75.71
2022-09-10T15:01:48.182Z,75.65
2022-09-10T15:04:24.133Z,75.45
2022-09-10T15:06:57.233Z,75.37
2022-09-10T15:09:31.304Z,75.25
2022-09-10T15:12:08.860Z,75.16
2022-09-10T15:14:40.679Z,75.45
2022-09-10T15:17:17.598Z,75.60
2022-09-10T15:19:48.519Z,75.72
2022-09-10T15:22:24.830Z,75.91
2022-09-10T15:25:12.545Z,75.86
2022-09-10T15:27:44.824Z,75.88
2022-09-10T15:30:17.090Z,75.92
2022-09-10T15:32:49.147Z,75.69
2022-09-10T15:35:21.164Z,75.51
2022-09-10T15:37:53.184Z,75.56
2022-09-10T15:40:25.225Z,75.57
2022-09-10T15:42:57.856Z,75.53
2022-09-10T15:45:29.685Z,75.59
2022-09-10T15:48:02.089Z,75.67
2022-09-10T15:50:34.728Z,75.92
2022-09-10T15:53:11.734Z,75.93
2022-09-10T15:55:44.214Z,76.01
2022-09-10T15:58:16.016Z,76.03
2022-09-10T16:00:48.285Z,76.18
2022-09-10T16:03:21.553Z,76.28
2022-09-10T16:05:53.500Z,76.37
2022-09-10T16:08:25.260Z,76.40
2022-09-10T16:10:57.154Z,76.52
2022-09-10T16:13:29.313Z,76.53
2022-09-10T16:16:03.903Z,76.68
2022-09-10T16:18:36.202Z,76.92
2022-09-10T16:21:13.555Z,76.97
2022-09-10T16:23:46.819Z,77.07
2022-09-10T16:26:20.723Z,77.16
2022-09-10T16:28:53.487Z,77.28
2022-09-10T16:31:27.382Z,77.28
2022-09-10T16:34:02.611Z,77.14
2022-09-10T16:36:37.032Z,77.03
2022-09-10T16:39:12.532Z,77.20
2022-09-10T16:41:46.392Z,77.40
2022-09-10T16:44:19.837Z,77.39
2022-09-10T16:46:52.553Z,77.46
2022-09-10T16:49:24.421Z,77.49
2022-09-10T16:51:56.228Z,77.40
2022-09-10T16:54:30.271Z,77.46
2022-09-10T16:57:02.226Z,77.44
2022-09-10T16:59:35.244Z,77.48
2022-09-10T17:02:07.657Z,77.59
2022-09-10T17:04:39.525Z,77.49
2022-09-10T17:07:11.413Z,77.40
2022-09-10T17:09:51.232Z,77.54
2022-09-10T17:12:23.211Z,77.52
2022-09-10T17:14:56.228Z,77.46
2022-09-10T17:17:28.427Z,77.39
2022-09-10T17:20:01.286Z,77.51
2022-09-10T17:22:33.110Z,77.59
2022-09-10T17:25:06.939Z,77.40
2022-09-10T17:27:38.805Z,77.50
2022-09-10T17:30:12.734Z,77.43
2022-09-10T17:32:44.624Z,77.53
2022-09-10T17:35:16.615Z,77.46
2022-09-10T17:37:48.709Z,77.48
2022-09-10T17:40:21.474Z,77.48
2022-09-10T17:42:53.716Z,77.49
2022-09-10T17:45:25.480Z,77.31
2022-09-10T17:47:57.423Z,77.47
2022-09-10T17:50:29.396Z,77.43
2022-09-10T17:53:02.182Z,77.30
2022-09-10T17:55:36.283Z,77.48
2022-09-10T17:58:08.105Z,77.41
2022-09-10T18:00:42.795Z,77.31
2022-09-10T18:03:15.677Z,77.44
2022-09-10T18:05:48.153Z,77.45
2022-09-10T18:08:20.390Z,77.70
2022-09-10T18:11:01.027Z,77.79
2022-09-10T18:13:33.309Z,77.86
2022-09-10T18:16:10.186Z,77.80
2022-09-10T18:18:40.536Z,78.01
2022-09-10T18:21:19.442Z,78.08
2022-09-10T18:23:55.260Z,78.11
2022-09-10T18:26:29.791Z,77.95
2022-09-10T18:29:03.404Z,78.05
2022-09-10T18:31:38.717Z,78.16
2022-09-10T18:34:12.666Z,78.00
2022-09-10T18:36:45.123Z,78.16
2022-09-10T18:39:17.430Z,78.09
2022-09-10T18:41:49.492Z,77.93
2022-09-10T18:44:24.238Z,78.07
2022-09-10T18:46:57.488Z,78.08
2022-09-10T18:49:29.663Z,77.99
2022-09-10T18:52:02.077Z,77.79
2022-09-10T18:54:36.890Z,77.75
2022-09-10T18:57:08.989Z,77.82
2022-09-10T18:59:40.806Z,77.88
2022-09-10T19:02:15.293Z,77.86
2022-09-10T19:05:09.641Z,77.95
2022-09-10T19:07:39.334Z,78.02
2022-09-10T19:10:11.377Z,77.91
2022-09-10T19:12:43.835Z,77.70
2022-09-10T19:15:15.753Z,77.84
2022-09-10T19:17:47.812Z,77.93
2022-09-10T19:20:20.463Z,77.87
2022-09-10T19:22:53.562Z,77.76
2022-09-10T19:25:25.383Z,77.77
2022-09-10T19:27:58.425Z,77.75
2022-09-10T19:30:35.152Z,77.65
2022-09-10T19:33:07.587Z,77.68
2022-09-10T19:35:39.835Z,77.74
2022-09-10T19:38:33.977Z,77.67
2022-09-10T19:41:09.534Z,77.73
2022-09-10T19:43:42.586Z,77.84
2022-09-10T19:46:15.340Z,77.90
2022-09-10T19:48:47.768Z,77.95
2022-09-10T19:51:21.599Z,78.05
2022-09-10T19:53:53.458Z,78.05
2022-09-10T19:56:27.357Z,78.17
2022-09-10T19:59:00.059Z,78.32
2022-09-10T20:01:35.578Z,78.33
2022-09-10T20:04:09.283Z,78.36
2022-09-10T20:06:42.574Z,78.34
2022-09-10T20:09:14.551Z,78.60
2022-09-10T20:11:46.331Z,78.64
2022-09-10T20:14:19.725Z,78.60
2022-09-10T20:16:51.597Z,78.72
2022-09-10T20:19:23.897Z,78.74
2022-09-10T20:21:56.038Z,78.92
2022-09-10T20:24:28.608Z,78.90
2022-09-10T20:27:00.547Z,78.78
2022-09-10T20:29:32.961Z,78.64
2022-09-10T20:32:05.457Z,78.63
2022-09-10T20:34:37.443Z,78.67
2022-09-10T20:37:09.296Z,78.54
2022-09-10T20:39:42.791Z,78.80
2022-09-10T20:42:15.101Z,78.60
2022-09-10T20:44:46.973Z,78.62
2022-09-10T20:47:18.874Z,78.60
2022-09-10T20:49:50.815Z,78.77
2022-09-10T20:52:23.432Z,78.83
2022-09-10T20:54:55.595Z,78.98
2022-09-10T20:57:30.280Z,79.22
2022-09-10T21:00:02.390Z,79.46
2022-09-10T21:02:34.513Z,79.55
2022-09-10T21:05:07.447Z,79.52
2022-09-10T21:07:39.273Z,79.51
2022-09-10T21:10:12.273Z,79.62
2022-09-10T21:12:44.150Z,79.77
2022-09-10T21:15:16.347Z,79.81
2022-09-10T21:17:49.472Z,79.87
2022-09-10T21:20:22.448Z,79.82
2022-09-10T21:22:56.094Z,80.01
2022-09-10T21:25:28.137Z,79.99
2022-09-10T21:28:00.075Z,80.00
2022-09-10T21:30:32.065Z,80.20
2022-09-10T21:33:03.978Z,80.27
2022-09-10T21:35:35.914Z,80.17
2022-09-10T21:38:07.687Z,80.19
2022-09-10T21:40:39.488Z,80.08
2022-09-10T21:43:11.307Z,80.19
2022-09-10T21:45:43.172Z,80.37
2022-09-10T21:48:14.981Z,80.31
2022-09-10T21:50:46.940Z,80.20
2022-09-10T21:53:19.200Z,80.24
2022-09-10T21:55:54.051Z,80.17
2022-09-10T21:58:27.984Z,80.13
2022-09-10T22:01:00.090Z,79.94
2022-09-10T22:03:33.666Z,80.07
2022-09-10T22:06:14.016Z,80.01
2022-09-10T22:08:47.796Z,79.88
2022-09-10T22:11:23.993Z,80.09
2022-09-10T22:13:57.527Z,80.06
2022-09-10T22:16:31.129Z,79.97
2022-09-10T22:19:05.789Z,80.08
2022-09-10T22:21:38.233Z,80.22
2022-09-10T22:24:11.698Z,80.29
2022-09-10T22:26:44.971Z,80.40
2022-09-10T22:29:18.789Z,80.38
2022-09-10T22:31:51.300Z,80.47
2022-09-10T22:34:23.655Z,80.56
2022-09-10T22:36:55.573Z,80.68
2022-09-10T22:39:30.028Z,80.74
2022-09-10T22:42:01.843Z,80.84
2022-09-10T22:44:33.706Z,80.84
2022-09-10T22:47:05.697Z,80.93
2022-09-10T22:49:37.529Z,81.11
2022-09-10T22:52:09.389Z,81.04
2022-09-10T22:54:41.148Z,81.24
2022-09-10T22:57:13.238Z,81.33
2022-09-10T22:59:45.150Z,81.33
2022-09-10T23:02:16.942Z,81.48
2022-09-10T23:04:51.189Z,81.38
2022-09-10T23:07:23.052Z,81.38
2022-09-10T23:09:55.555Z,81.56
2022-09-10T23:12:27.466Z,81.57
2022-09-10T23:14:59.395Z,81.66
2022-09-10T23:17:31.229Z,81.65
2022-09-10T23:20:03.232Z,81.63
2022-09-10T23:22:35.095Z,81.68
2022-09-10T23:25:08.372Z,81.70
2022-09-10T23:27:40.358Z,81.61
2022-09-10T23:30:16.156Z,81.67
2022-09-10T23:32:48.929Z,81.57
2022-09-10T23:35:21.254Z,81.48
2022-09-10T23:37:53.044Z,81.63
2022-09-10T23:40:29.975Z,81.72
2022-09-10T23:43:04.172Z,81.66
2022-09-10T23:45:35.961Z,81.70
2022-09-10T23:48:08.539Z,81.83
2022-09-10T23:50:40.713Z,81.77
2022-09-10T23:53:12.576Z,81.85
2022-09-10T23:55:44.353Z,81.95
2022-09-10T23:58:19.899Z,81.81
